sensor_id;sensor_type;location;lat;lon;timestamp;temperature;humidity
42617;DHT22;28250;52.320;0.360;2023-09-19T00:00:43;11.40;99.90
42617;DHT22;28250;52.320;0.360;2023-09-19T00:03:10;11.50;99.90
42617;DHT22;28250;52.320;0.360;2023-09-19T00:05:38;11.40;99.90
42617;DHT22;28250;52.320;0.360;2023-09-19T00:08:04;11.50;99.90
42617;DHT22;28250;52.320;0.360;2023-09-19T00:10:32;11.50;99.90
42617;DHT22;28250;52.320;0.360;2023-09-19T00:13:02;11.50;99.90
42617;DHT22;28250;52.320;0.360;2023-09-19T00:15:37;11.50;99.90
42617;DHT22;28250;52.320;0.360;2023-09-19T00:18:04;11.50;99.90
42617;DHT22;28250;52.320;0.360;2023-09-19T00:20:32;11.50;99.90
42617;DHT22;28250;52.320;0.360;2023-09-19T00:23:00;11.50;99.90
42617;DHT22;28250;52.320;0.360;2023-09-19T00:25:35;11.40;99.90
42617;DHT22;28250;52.320;0.360;2023-09-19T00:28:03;11.40;99.90
42617;DHT22;28250;52.320;0.360;2023-09-19T00:30:34;11.40;99.90
42617;DHT22;28250;52.320;0.360;2023-09-19T00:33:00;11.40;99.90
42617;DHT22;28250;52.320;0.360;2023-09-19T00:35:31;11.30;99.90
42617;DHT22;28250;52.320;0.360;2023-09-19T00:37:57;11.30;99.90
42617;DHT22;28250;52.320;0.360;2023-09-19T00:40:23;11.30;99.90
42617;DHT22;28250;52.320;0.360;2023-09-19T00:42:49;11.20;99.90
42617;DHT22;28250;52.320;0.360;2023-09-19T00:45:17;11.20;99.90
42617;DHT22;28250;52.320;0.360;2023-09-19T00:47:50;11.10;99.90
42617;DHT22;28250;52.320;0.360;2023-09-19T00:50:23;11.10;99.90
42617;DHT22;28250;52.320;0.360;2023-09-19T00:52:54;11.10;99.90
42617;DHT22;28250;52.320;0.360;2023-09-19T00:55:24;11.10;99.90
42617;DHT22;28250;52.320;0.360;2023-09-19T00:57:51;11.10;99.90
42617;DHT22;28250;52.320;0.360;2023-09-19T01:00:18;11.10;99.90
42617;DHT22;28250;52.320;0.360;2023-09-19T01:02:47;11.10;99.90
42617;DHT22;28250;52.320;0.360;2023-09-19T01:05:13;11.10;99.90
42617;DHT22;28250;52.320;0.360;2023-09-19T01:07:40;11.20;99.90
42617;DHT22;28250;52.320;0.360;2023-09-19T01:10:08;11.20;99.90
42617;DHT22;28250;52.320;0.360;2023-09-19T01:12:54;11.20;99.90
42617;DHT22;28250;52.320;0.360;2023-09-19T01:15:59;11.20;99.90
42617;DHT22;28250;52.320;0.360;2023-09-19T01:18:58;11.20;99.90
42617;DHT22;28250;52.320;0.360;2023-09-19T01:21:48;11.10;99.90
42617;DHT22;28250;52.320;0.360;2023-09-19T01:30:21;11.10;99.90
42617;DHT22;28250;52.320;0.360;2023-09-19T01:32:53;11.10;99.90
42617;DHT22;28250;52.320;0.360;2023-09-19T01:35:19;11.10;99.90
42617;DHT22;28250;52.320;0.360;2023-09-19T01:37:45;11.00;99.90
42617;DHT22;28250;52.320;0.360;2023-09-19T01:40:17;11.00;99.90
42617;DHT22;28250;52.320;0.360;2023-09-19T01:42:58;11.10;99.90
42617;DHT22;28250;52.320;0.360;2023-09-19T01:48:46;11.10;99.90
42617;DHT22;28250;52.320;0.360;2023-09-19T01:51:40;11.10;99.90
42617;DHT22;28250;52.320;0.360;2023-09-19T01:54:14;11.20;99.90
42617;DHT22;28250;52.320;0.360;2023-09-19T01:56:47;11.20;99.90
42617;DHT22;28250;52.320;0.360;2023-09-19T01:59:21;11.20;99.90
42617;DHT22;28250;52.320;0.360;2023-09-19T02:01:52;11.20;99.90
42617;DHT22;28250;52.320;0.360;2023-09-19T02:04:19;11.20;99.90
42617;DHT22;28250;52.320;0.360;2023-09-19T02:06:45;11.20;99.90
42617;DHT22;28250;52.320;0.360;2023-09-19T02:09:14;11.30;99.90
42617;DHT22;28250;52.320;0.360;2023-09-19T02:11:41;11.30;99.90
42617;DHT22;28250;52.320;0.360;2023-09-19T02:14:08;11.30;99.90
42617;DHT22;28250;52.320;0.360;2023-09-19T02:16:34;11.30;99.90
42617;DHT22;28250;52.320;0.360;2023-09-19T02:19:01;11.30;99.90
42617;DHT22;28250;52.320;0.360;2023-09-19T02:21:31;11.30;99.90
42617;DHT22;28250;52.320;0.360;2023-09-19T02:23:58;11.30;99.90
42617;DHT22;28250;52.320;0.360;2023-09-19T02:26:24;11.20;99.90
42617;DHT22;28250;52.320;0.360;2023-09-19T02:28:51;11.20;99.90
42617;DHT22;28250;52.320;0.360;2023-09-19T02:31:18;11.20;99.90
42617;DHT22;28250;52.320;0.360;2023-09-19T02:33:44;11.20;99.90
42617;DHT22;28250;52.320;0.360;2023-09-19T02:36:11;11.20;99.90
42617;DHT22;28250;52.320;0.360;2023-09-19T02:38:42;11.20;99.90
42617;DHT22;28250;52.320;0.360;2023-09-19T02:41:08;11.20;99.90
42617;DHT22;28250;52.320;0.360;2023-09-19T02:43:36;11.20;99.90
42617;DHT22;28250;52.320;0.360;2023-09-19T02:46:02;11.30;99.90
42617;DHT22;28250;52.320;0.360;2023-09-19T02:48:29;11.30;99.90
42617;DHT22;28250;52.320;0.360;2023-09-19T02:50:58;11.40;99.90
42617;DHT22;28250;52.320;0.360;2023-09-19T02:53:25;11.50;99.90
42617;DHT22;28250;52.320;0.360;2023-09-19T02:55:51;11.50;99.90
42617;DHT22;28250;52.320;0.360;2023-09-19T02:58:18;11.50;99.90
42617;DHT22;28250;52.320;0.360;2023-09-19T03:00:45;11.60;99.90
42617;DHT22;28250;52.320;0.360;2023-09-19T03:03:17;11.50;99.90
42617;DHT22;28250;52.320;0.360;2023-09-19T03:05:44;11.50;99.90
42617;DHT22;28250;52.320;0.360;2023-09-19T03:08:15;11.50;99.90
42617;DHT22;28250;52.320;0.360;2023-09-19T03:10:42;11.50;99.90
42617;DHT22;28250;52.320;0.360;2023-09-19T03:13:12;11.50;99.90
42617;DHT22;28250;52.320;0.360;2023-09-19T03:15:42;11.50;99.90
42617;DHT22;28250;52.320;0.360;2023-09-19T03:18:13;11.50;99.90
42617;DHT22;28250;52.320;0.360;2023-09-19T03:20:39;11.50;99.90
42617;DHT22;28250;52.320;0.360;2023-09-19T03:23:05;11.50;99.90
42617;DHT22;28250;52.320;0.360;2023-09-19T03:25:34;11.50;99.90
42617;DHT22;28250;52.320;0.360;2023-09-19T03:28:02;11.50;99.90
42617;DHT22;28250;52.320;0.360;2023-09-19T03:30:32;11.50;99.90
42617;DHT22;28250;52.320;0.360;2023-09-19T03:33:00;11.50;99.90
42617;DHT22;28250;52.320;0.360;2023-09-19T03:35:26;11.50;99.90
42617;DHT22;28250;52.320;0.360;2023-09-19T03:37:53;11.50;99.90
42617;DHT22;28250;52.320;0.360;2023-09-19T03:40:19;11.50;99.90
42617;DHT22;28250;52.320;0.360;2023-09-19T03:42:47;11.50;99.90
42617;DHT22;28250;52.320;0.360;2023-09-19T03:45:13;11.50;99.90
42617;DHT22;28250;52.320;0.360;2023-09-19T03:47:46;11.50;99.90
42617;DHT22;28250;52.320;0.360;2023-09-19T03:50:14;11.50;99.90
42617;DHT22;28250;52.320;0.360;2023-09-19T03:52:46;11.50;99.90
42617;DHT22;28250;52.320;0.360;2023-09-19T03:55:12;11.50;99.90
42617;DHT22;28250;52.320;0.360;2023-09-19T03:57:39;11.50;99.90
42617;DHT22;28250;52.320;0.360;2023-09-19T04:00:06;11.50;99.90
42617;DHT22;28250;52.320;0.360;2023-09-19T04:02:40;11.50;99.90
42617;DHT22;28250;52.320;0.360;2023-09-19T04:05:07;11.60;99.90
42617;DHT22;28250;52.320;0.360;2023-09-19T04:07:34;11.60;99.90
42617;DHT22;28250;52.320;0.360;2023-09-19T04:10:00;11.70;99.90
42617;DHT22;28250;52.320;0.360;2023-09-19T04:12:29;11.70;99.90
42617;DHT22;28250;52.320;0.360;2023-09-19T04:14:55;11.70;99.90
42617;DHT22;28250;52.320;0.360;2023-09-19T04:17:21;11.80;99.90
42617;DHT22;28250;52.320;0.360;2023-09-19T04:19:48;11.80;99.90
42617;DHT22;28250;52.320;0.360;2023-09-19T04:22:15;11.90;99.90
42617;DHT22;28250;52.320;0.360;2023-09-19T04:24:41;12.00;99.90
42617;DHT22;28250;52.320;0.360;2023-09-19T04:27:07;12.00;99.90
42617;DHT22;28250;52.320;0.360;2023-09-19T04:29:33;12.00;99.90
42617;DHT22;28250;52.320;0.360;2023-09-19T04:32:00;12.00;99.90
42617;DHT22;28250;52.320;0.360;2023-09-19T04:34:26;12.10;99.90
42617;DHT22;28250;52.320;0.360;2023-09-19T04:36:53;12.10;99.90
42617;DHT22;28250;52.320;0.360;2023-09-19T04:39:19;12.20;99.90
42617;DHT22;28250;52.320;0.360;2023-09-19T04:41:45;12.20;99.90
42617;DHT22;28250;52.320;0.360;2023-09-19T04:44:13;12.20;99.90
42617;DHT22;28250;52.320;0.360;2023-09-19T04:46:39;12.20;99.90
42617;DHT22;28250;52.320;0.360;2023-09-19T04:49:05;12.20;99.90
42617;DHT22;28250;52.320;0.360;2023-09-19T04:51:31;12.20;99.90
42617;DHT22;28250;52.320;0.360;2023-09-19T04:54:00;12.20;99.90
42617;DHT22;28250;52.320;0.360;2023-09-19T04:56:26;12.20;99.90
42617;DHT22;28250;52.320;0.360;2023-09-19T04:58:54;12.10;99.90
42617;DHT22;28250;52.320;0.360;2023-09-19T05:01:20;12.20;99.90
42617;DHT22;28250;52.320;0.360;2023-09-19T05:03:49;12.20;99.90
42617;DHT22;28250;52.320;0.360;2023-09-19T05:06:21;12.20;99.90
42617;DHT22;28250;52.320;0.360;2023-09-19T05:08:49;12.20;99.90
42617;DHT22;28250;52.320;0.360;2023-09-19T05:11:19;12.20;99.90
42617;DHT22;28250;52.320;0.360;2023-09-19T05:13:47;12.30;99.90
42617;DHT22;28250;52.320;0.360;2023-09-19T05:16:16;12.20;99.90
42617;DHT22;28250;52.320;0.360;2023-09-19T05:18:42;12.30;99.90
42617;DHT22;28250;52.320;0.360;2023-09-19T05:21:08;12.20;99.90
42617;DHT22;28250;52.320;0.360;2023-09-19T05:23:34;12.30;99.90
42617;DHT22;28250;52.320;0.360;2023-09-19T05:26:00;12.20;99.90
42617;DHT22;28250;52.320;0.360;2023-09-19T05:28:27;12.30;99.90
42617;DHT22;28250;52.320;0.360;2023-09-19T05:30:53;12.20;99.90
42617;DHT22;28250;52.320;0.360;2023-09-19T05:33:19;12.30;99.90
42617;DHT22;28250;52.320;0.360;2023-09-19T05:35:48;12.30;99.90
42617;DHT22;28250;52.320;0.360;2023-09-19T05:38:14;12.30;99.90
42617;DHT22;28250;52.320;0.360;2023-09-19T05:40:41;12.30;99.90
42617;DHT22;28250;52.320;0.360;2023-09-19T05:43:08;12.40;99.90
42617;DHT22;28250;52.320;0.360;2023-09-19T05:45:35;12.40;99.90
42617;DHT22;28250;52.320;0.360;2023-09-19T05:48:10;12.50;99.90
42617;DHT22;28250;52.320;0.360;2023-09-19T05:50:39;12.50;99.90
42617;DHT22;28250;52.320;0.360;2023-09-19T05:53:06;12.60;99.90
42617;DHT22;28250;52.320;0.360;2023-09-19T05:55:32;12.60;99.90
42617;DHT22;28250;52.320;0.360;2023-09-19T05:57:59;12.70;99.90
42617;DHT22;28250;52.320;0.360;2023-09-19T06:00:25;12.70;99.90
42617;DHT22;28250;52.320;0.360;2023-09-19T06:02:54;12.70;99.90
42617;DHT22;28250;52.320;0.360;2023-09-19T06:05:21;12.80;99.90
42617;DHT22;28250;52.320;0.360;2023-09-19T06:07:48;12.80;99.90
42617;DHT22;28250;52.320;0.360;2023-09-19T06:10:14;12.80;99.90
42617;DHT22;28250;52.320;0.360;2023-09-19T06:12:41;12.90;99.90
42617;DHT22;28250;52.320;0.360;2023-09-19T06:15:12;12.90;99.90
42617;DHT22;28250;52.320;0.360;2023-09-19T06:17:44;13.00;99.90
42617;DHT22;28250;52.320;0.360;2023-09-19T06:20:12;13.00;99.90
42617;DHT22;28250;52.320;0.360;2023-09-19T06:22:39;13.10;99.90
42617;DHT22;28250;52.320;0.360;2023-09-19T06:25:08;13.10;99.90
42617;DHT22;28250;52.320;0.360;2023-09-19T06:27:38;13.20;99.90
42617;DHT22;28250;52.320;0.360;2023-09-19T06:30:07;13.30;99.90
42617;DHT22;28250;52.320;0.360;2023-09-19T06:32:35;13.30;99.90
42617;DHT22;28250;52.320;0.360;2023-09-19T06:35:01;13.30;99.90
42617;DHT22;28250;52.320;0.360;2023-09-19T06:37:29;13.30;99.90
42617;DHT22;28250;52.320;0.360;2023-09-19T06:39:55;13.40;99.90
42617;DHT22;28250;52.320;0.360;2023-09-19T06:42:22;13.40;99.90
42617;DHT22;28250;52.320;0.360;2023-09-19T06:44:49;13.40;99.90
42617;DHT22;28250;52.320;0.360;2023-09-19T06:47:15;13.50;99.90
42617;DHT22;28250;52.320;0.360;2023-09-19T06:49:42;13.60;99.90
42617;DHT22;28250;52.320;0.360;2023-09-19T06:52:11;13.60;99.90
42617;DHT22;28250;52.320;0.360;2023-09-19T06:54:37;13.60;99.90
42617;DHT22;28250;52.320;0.360;2023-09-19T06:57:03;13.70;99.90
42617;DHT22;28250;52.320;0.360;2023-09-19T06:59:30;13.70;99.90
42617;DHT22;28250;52.320;0.360;2023-09-19T07:01:58;13.90;99.90
42617;DHT22;28250;52.320;0.360;2023-09-19T07:04:25;13.90;99.90
42617;DHT22;28250;52.320;0.360;2023-09-19T07:06:51;14.00;99.90
42617;DHT22;28250;52.320;0.360;2023-09-19T07:09:17;14.10;99.90
42617;DHT22;28250;52.320;0.360;2023-09-19T07:11:45;14.10;99.90
42617;DHT22;28250;52.320;0.360;2023-09-19T07:14:13;14.20;99.90
42617;DHT22;28250;52.320;0.360;2023-09-19T07:16:39;14.30;99.90
42617;DHT22;28250;52.320;0.360;2023-09-19T07:19:08;14.40;99.90
42617;DHT22;28250;52.320;0.360;2023-09-19T07:21:34;14.50;99.90
42617;DHT22;28250;52.320;0.360;2023-09-19T07:24:01;14.60;99.90
42617;DHT22;28250;52.320;0.360;2023-09-19T07:26:29;14.70;99.90
42617;DHT22;28250;52.320;0.360;2023-09-19T07:28:55;14.70;99.90
42617;DHT22;28250;52.320;0.360;2023-09-19T07:31:22;14.80;99.90
42617;DHT22;28250;52.320;0.360;2023-09-19T07:33:49;14.90;99.90
42617;DHT22;28250;52.320;0.360;2023-09-19T07:36:15;15.00;99.90
42617;DHT22;28250;52.320;0.360;2023-09-19T07:38:41;15.00;99.90
42617;DHT22;28250;52.320;0.360;2023-09-19T07:41:08;15.10;99.90
42617;DHT22;28250;52.320;0.360;2023-09-19T07:43:35;15.20;99.90
42617;DHT22;28250;52.320;0.360;2023-09-19T07:46:07;15.20;99.90
42617;DHT22;28250;52.320;0.360;2023-09-19T07:48:37;15.20;99.90
42617;DHT22;28250;52.320;0.360;2023-09-19T07:51:07;15.20;99.90
42617;DHT22;28250;52.320;0.360;2023-09-19T07:53:35;15.30;99.90
42617;DHT22;28250;52.320;0.360;2023-09-19T07:56:05;15.30;99.90
42617;DHT22;28250;52.320;0.360;2023-09-19T07:58:31;15.30;99.90
42617;DHT22;28250;52.320;0.360;2023-09-19T08:01:03;15.30;99.90
42617;DHT22;28250;52.320;0.360;2023-09-19T08:03:30;15.40;99.90
42617;DHT22;28250;52.320;0.360;2023-09-19T08:05:56;15.40;99.90
42617;DHT22;28250;52.320;0.360;2023-09-19T08:08:27;15.50;99.90
42617;DHT22;28250;52.320;0.360;2023-09-19T08:10:56;15.50;99.90
42617;DHT22;28250;52.320;0.360;2023-09-19T08:13:24;15.50;99.90
42617;DHT22;28250;52.320;0.360;2023-09-19T08:15:50;15.60;99.90
42617;DHT22;28250;52.320;0.360;2023-09-19T08:18:19;15.70;99.90
42617;DHT22;28250;52.320;0.360;2023-09-19T08:20:51;15.80;99.90
42617;DHT22;28250;52.320;0.360;2023-09-19T08:23:18;15.90;99.90
42617;DHT22;28250;52.320;0.360;2023-09-19T08:25:47;15.90;99.90
42617;DHT22;28250;52.320;0.360;2023-09-19T08:28:13;16.00;99.90
42617;DHT22;28250;52.320;0.360;2023-09-19T08:30:45;16.10;99.90
42617;DHT22;28250;52.320;0.360;2023-09-19T08:33:12;16.30;99.90
42617;DHT22;28250;52.320;0.360;2023-09-19T08:35:41;16.40;99.90
42617;DHT22;28250;52.320;0.360;2023-09-19T08:38:09;16.40;99.90
42617;DHT22;28250;52.320;0.360;2023-09-19T08:40:39;16.40;99.90
42617;DHT22;28250;52.320;0.360;2023-09-19T08:43:07;16.40;99.90
42617;DHT22;28250;52.320;0.360;2023-09-19T08:45:34;16.50;99.90
42617;DHT22;28250;52.320;0.360;2023-09-19T08:50:52;16.50;99.90
42617;DHT22;28250;52.320;0.360;2023-09-19T08:53:34;16.50;99.90
42617;DHT22;28250;52.320;0.360;2023-09-19T08:56:10;16.60;99.90
42617;DHT22;28250;52.320;0.360;2023-09-19T08:58:45;16.70;99.90
42617;DHT22;28250;52.320;0.360;2023-09-19T09:01:15;16.80;99.90
42617;DHT22;28250;52.320;0.360;2023-09-19T09:03:43;17.10;99.90
42617;DHT22;28250;52.320;0.360;2023-09-19T09:06:14;17.30;99.90
42617;DHT22;28250;52.320;0.360;2023-09-19T09:08:43;17.40;99.90
42617;DHT22;28250;52.320;0.360;2023-09-19T09:11:11;17.50;99.90
42617;DHT22;28250;52.320;0.360;2023-09-19T09:13:38;17.50;99.90
42617;DHT22;28250;52.320;0.360;2023-09-19T09:16:07;17.80;99.90
42617;DHT22;28250;52.320;0.360;2023-09-19T09:18:35;17.90;99.90
42617;DHT22;28250;52.320;0.360;2023-09-19T09:21:01;17.80;99.90
42617;DHT22;28250;52.320;0.360;2023-09-19T09:23:27;17.70;99.90
42617;DHT22;28250;52.320;0.360;2023-09-19T09:25:55;17.60;99.90
42617;DHT22;28250;52.320;0.360;2023-09-19T09:28:24;17.50;99.90
42617;DHT22;28250;52.320;0.360;2023-09-19T09:30:57;17.50;99.90
42617;DHT22;28250;52.320;0.360;2023-09-19T09:33:24;17.50;99.90
42617;DHT22;28250;52.320;0.360;2023-09-19T09:35:53;17.50;99.90
42617;DHT22;28250;52.320;0.360;2023-09-19T09:38:25;17.50;99.90
42617;DHT22;28250;52.320;0.360;2023-09-19T09:41:03;17.50;99.90
42617;DHT22;28250;52.320;0.360;2023-09-19T09:43:39;17.60;99.90
42617;DHT22;28250;52.320;0.360;2023-09-19T09:48:48;17.60;99.90
42617;DHT22;28250;52.320;0.360;2023-09-19T09:54:24;17.90;99.90
42617;DHT22;28250;52.320;0.360;2023-09-19T09:57:01;18.10;99.90
42617;DHT22;28250;52.320;0.360;2023-09-19T09:59:55;18.40;99.90
42617;DHT22;28250;52.320;0.360;2023-09-19T10:02:42;18.80;99.90
42617;DHT22;28250;52.320;0.360;2023-09-19T10:05:21;18.80;99.90
42617;DHT22;28250;52.320;0.360;2023-09-19T10:07:53;18.60;99.90
42617;DHT22;28250;52.320;0.360;2023-09-19T10:10:35;18.60;99.90
42617;DHT22;28250;52.320;0.360;2023-09-19T10:13:11;18.50;99.90
42617;DHT22;28250;52.320;0.360;2023-09-19T10:15:40;18.40;99.90
42617;DHT22;28250;52.320;0.360;2023-09-19T10:18:12;18.60;99.90
42617;DHT22;28250;52.320;0.360;2023-09-19T10:20:47;18.70;99.90
42617;DHT22;28250;52.320;0.360;2023-09-19T10:23:17;19.20;99.90
42617;DHT22;28250;52.320;0.360;2023-09-19T10:25:50;19.10;99.90
42617;DHT22;28250;52.320;0.360;2023-09-19T10:28:18;18.90;99.90
42617;DHT22;28250;52.320;0.360;2023-09-19T10:30:49;18.80;99.90
42617;DHT22;28250;52.320;0.360;2023-09-19T10:33:19;18.70;99.90
42617;DHT22;28250;52.320;0.360;2023-09-19T10:35:51;18.80;99.90
42617;DHT22;28250;52.320;0.360;2023-09-19T10:38:19;19.10;99.90
42617;DHT22;28250;52.320;0.360;2023-09-19T10:40:54;19.20;99.90
42617;DHT22;28250;52.320;0.360;2023-09-19T10:43:29;19.10;99.90
42617;DHT22;28250;52.320;0.360;2023-09-19T10:46:01;19.00;99.90
42617;DHT22;28250;52.320;0.360;2023-09-19T10:48:32;19.10;99.90
42617;DHT22;28250;52.320;0.360;2023-09-19T10:54:01;19.20;99.90
42617;DHT22;28250;52.320;0.360;2023-09-19T10:56:33;19.20;99.90
42617;DHT22;28250;52.320;0.360;2023-09-19T10:59:10;19.30;99.90
42617;DHT22;28250;52.320;0.360;2023-09-19T11:01:46;19.10;99.90
42617;DHT22;28250;52.320;0.360;2023-09-19T11:04:29;19.00;99.90
42617;DHT22;28250;52.320;0.360;2023-09-19T11:09:53;18.90;99.90
42617;DHT22;28250;52.320;0.360;2023-09-19T11:14:57;19.00;99.90
42617;DHT22;28250;52.320;0.360;2023-09-19T11:17:42;19.00;99.90
42617;DHT22;28250;52.320;0.360;2023-09-19T11:30:37;19.40;99.90
42617;DHT22;28250;52.320;0.360;2023-09-19T11:33:34;19.40;99.90
42617;DHT22;28250;52.320;0.360;2023-09-19T11:36:16;19.30;99.90
42617;DHT22;28250;52.320;0.360;2023-09-19T11:49:40;19.70;99.90
42617;DHT22;28250;52.320;0.360;2023-09-19T11:52:06;19.40;99.90
42617;DHT22;28250;52.320;0.360;2023-09-19T11:54:35;19.40;99.90
42617;DHT22;28250;52.320;0.360;2023-09-19T11:57:05;19.40;99.90
42617;DHT22;28250;52.320;0.360;2023-09-19T11:59:39;19.30;99.90
42617;DHT22;28250;52.320;0.360;2023-09-19T12:02:06;19.30;99.90
42617;DHT22;28250;52.320;0.360;2023-09-19T12:04:42;19.20;99.90
42617;DHT22;28250;52.320;0.360;2023-09-19T12:07:16;19.10;99.90
42617;DHT22;28250;52.320;0.360;2023-09-19T12:09:50;18.90;99.90
42617;DHT22;28250;52.320;0.360;2023-09-19T12:12:22;18.90;99.90
42617;DHT22;28250;52.320;0.360;2023-09-19T12:14:50;18.80;99.90
42617;DHT22;28250;52.320;0.360;2023-09-19T12:17:19;18.60;99.90
42617;DHT22;28250;52.320;0.360;2023-09-19T12:19:55;18.50;99.90
42617;DHT22;28250;52.320;0.360;2023-09-19T12:22:21;18.50;99.90
42617;DHT22;28250;52.320;0.360;2023-09-19T12:24:48;18.50;99.90
42617;DHT22;28250;52.320;0.360;2023-09-19T12:27:16;18.40;99.90
42617;DHT22;28250;52.320;0.360;2023-09-19T12:29:47;18.40;99.90
42617;DHT22;28250;52.320;0.360;2023-09-19T12:32:36;18.40;99.90
42617;DHT22;28250;52.320;0.360;2023-09-19T12:35:06;18.50;99.90
42617;DHT22;28250;52.320;0.360;2023-09-19T12:37:51;18.50;99.90
42617;DHT22;28250;52.320;0.360;2023-09-19T12:40:21;18.50;99.90
42617;DHT22;28250;52.320;0.360;2023-09-19T12:42:55;18.50;99.90
42617;DHT22;28250;52.320;0.360;2023-09-19T12:45:24;18.50;99.90
42617;DHT22;28250;52.320;0.360;2023-09-19T12:48:26;18.50;99.90
42617;DHT22;28250;52.320;0.360;2023-09-19T12:56:14;18.50;99.90
42617;DHT22;28250;52.320;0.360;2023-09-19T12:58:54;18.40;99.90
42617;DHT22;28250;52.320;0.360;2023-09-19T13:01:23;18.50;99.90
42617;DHT22;28250;52.320;0.360;2023-09-19T13:06:52;18.50;99.90
42617;DHT22;28250;52.320;0.360;2023-09-19T13:09:23;18.60;99.90
42617;DHT22;28250;52.320;0.360;2023-09-19T13:12:00;18.60;99.90
42617;DHT22;28250;52.320;0.360;2023-09-19T13:14:29;18.60;99.90
42617;DHT22;28250;52.320;0.360;2023-09-19T13:17:09;18.60;99.90
42617;DHT22;28250;52.320;0.360;2023-09-19T13:19:50;18.70;99.90
42617;DHT22;28250;52.320;0.360;2023-09-19T13:22:59;18.70;99.90
42617;DHT22;28250;52.320;0.360;2023-09-19T13:25:26;18.70;99.90
42617;DHT22;28250;52.320;0.360;2023-09-19T13:27:56;18.70;99.90
42617;DHT22;28250;52.320;0.360;2023-09-19T13:30:25;18.70;99.90
42617;DHT22;28250;52.320;0.360;2023-09-19T13:32:53;18.70;99.90
42617;DHT22;28250;52.320;0.360;2023-09-19T13:35:32;18.70;99.90
42617;DHT22;28250;52.320;0.360;2023-09-19T13:37:58;18.70;99.90
42617;DHT22;28250;52.320;0.360;2023-09-19T13:40:24;18.70;99.90
42617;DHT22;28250;52.320;0.360;2023-09-19T13:42:56;18.70;99.90
42617;DHT22;28250;52.320;0.360;2023-09-19T13:45:22;18.70;99.90
42617;DHT22;28250;52.320;0.360;2023-09-19T13:47:50;18.60;99.90
42617;DHT22;28250;52.320;0.360;2023-09-19T13:50:16;18.60;99.90
42617;DHT22;28250;52.320;0.360;2023-09-19T13:52:50;18.60;99.90
42617;DHT22;28250;52.320;0.360;2023-09-19T13:55:20;18.50;99.90
42617;DHT22;28250;52.320;0.360;2023-09-19T13:57:49;18.40;99.90
42617;DHT22;28250;52.320;0.360;2023-09-19T14:00:18;18.20;99.90
42617;DHT22;28250;52.320;0.360;2023-09-19T14:02:45;18.10;99.90
42617;DHT22;28250;52.320;0.360;2023-09-19T14:05:12;18.10;99.90
42617;DHT22;28250;52.320;0.360;2023-09-19T14:07:43;17.90;99.90
42617;DHT22;28250;52.320;0.360;2023-09-19T14:10:10;17.90;99.90
42617;DHT22;28250;52.320;0.360;2023-09-19T14:12:37;17.90;99.90
42617;DHT22;28250;52.320;0.360;2023-09-19T14:15:07;17.80;99.90
42617;DHT22;28250;52.320;0.360;2023-09-19T14:17:33;17.90;99.90
42617;DHT22;28250;52.320;0.360;2023-09-19T14:20:00;17.90;99.90
42617;DHT22;28250;52.320;0.360;2023-09-19T14:22:26;17.90;99.90
42617;DHT22;28250;52.320;0.360;2023-09-19T14:24:52;18.00;99.90
42617;DHT22;28250;52.320;0.360;2023-09-19T14:27:18;18.10;99.90
42617;DHT22;28250;52.320;0.360;2023-09-19T14:29:45;18.10;99.90
42617;DHT22;28250;52.320;0.360;2023-09-19T14:32:11;18.20;99.90
42617;DHT22;28250;52.320;0.360;2023-09-19T14:34:37;18.30;99.90
42617;DHT22;28250;52.320;0.360;2023-09-19T14:37:10;18.30;99.90
42617;DHT22;28250;52.320;0.360;2023-09-19T14:39:37;18.30;99.90
42617;DHT22;28250;52.320;0.360;2023-09-19T14:42:06;18.30;99.90
42617;DHT22;28250;52.320;0.360;2023-09-19T14:44:33;18.30;99.90
42617;DHT22;28250;52.320;0.360;2023-09-19T14:46:59;18.30;99.90
42617;DHT22;28250;52.320;0.360;2023-09-19T14:49:25;18.40;99.90
42617;DHT22;28250;52.320;0.360;2023-09-19T14:51:51;18.50;99.90
42617;DHT22;28250;52.320;0.360;2023-09-19T14:54:18;18.50;99.90
42617;DHT22;28250;52.320;0.360;2023-09-19T14:56:44;18.60;99.90
42617;DHT22;28250;52.320;0.360;2023-09-19T14:59:11;18.60;99.90
42617;DHT22;28250;52.320;0.360;2023-09-19T15:01:37;18.60;99.90
42617;DHT22;28250;52.320;0.360;2023-09-19T15:04:04;18.60;99.90
42617;DHT22;28250;52.320;0.360;2023-09-19T15:06:30;18.60;99.90
42617;DHT22;28250;52.320;0.360;2023-09-19T15:08:56;18.60;99.90
42617;DHT22;28250;52.320;0.360;2023-09-19T15:11:23;18.60;99.90
42617;DHT22;28250;52.320;0.360;2023-09-19T15:13:52;18.60;99.90
42617;DHT22;28250;52.320;0.360;2023-09-19T15:16:22;18.60;99.90
42617;DHT22;28250;52.320;0.360;2023-09-19T15:18:48;18.70;99.90
42617;DHT22;28250;52.320;0.360;2023-09-19T15:21:14;18.60;99.90
42617;DHT22;28250;52.320;0.360;2023-09-19T15:23:42;18.60;99.90
42617;DHT22;28250;52.320;0.360;2023-09-19T15:26:11;18.60;99.90
42617;DHT22;28250;52.320;0.360;2023-09-19T15:28:38;18.60;99.90
42617;DHT22;28250;52.320;0.360;2023-09-19T15:31:10;18.60;99.90
42617;DHT22;28250;52.320;0.360;2023-09-19T15:33:37;18.60;99.90
42617;DHT22;28250;52.320;0.360;2023-09-19T15:36:05;18.60;99.90
42617;DHT22;28250;52.320;0.360;2023-09-19T15:41:36;18.60;99.90
42617;DHT22;28250;52.320;0.360;2023-09-19T15:44:17;18.60;99.90
42617;DHT22;28250;52.320;0.360;2023-09-19T15:46:45;18.70;99.90
42617;DHT22;28250;52.320;0.360;2023-09-19T15:49:11;18.60;99.90
42617;DHT22;28250;52.320;0.360;2023-09-19T15:51:38;18.60;99.90
42617;DHT22;28250;52.320;0.360;2023-09-19T15:54:16;18.60;99.90
42617;DHT22;28250;52.320;0.360;2023-09-19T15:56:45;18.60;99.90
42617;DHT22;28250;52.320;0.360;2023-09-19T15:59:11;18.60;99.90
42617;DHT22;28250;52.320;0.360;2023-09-19T16:01:44;18.60;99.90
42617;DHT22;28250;52.320;0.360;2023-09-19T16:04:11;18.60;99.90
42617;DHT22;28250;52.320;0.360;2023-09-19T16:06:38;18.60;99.90
42617;DHT22;28250;52.320;0.360;2023-09-19T16:09:04;18.60;99.90
42617;DHT22;28250;52.320;0.360;2023-09-19T16:11:35;18.60;99.90
42617;DHT22;28250;52.320;0.360;2023-09-19T16:14:03;18.60;99.90
42617;DHT22;28250;52.320;0.360;2023-09-19T16:16:30;18.60;99.90
42617;DHT22;28250;52.320;0.360;2023-09-19T16:18:59;18.70;99.90
42617;DHT22;28250;52.320;0.360;2023-09-19T16:21:31;18.60;99.90
42617;DHT22;28250;52.320;0.360;2023-09-19T16:23:59;18.60;99.90
42617;DHT22;28250;52.320;0.360;2023-09-19T16:26:27;18.60;99.90
42617;DHT22;28250;52.320;0.360;2023-09-19T16:28:56;18.60;99.90
42617;DHT22;28250;52.320;0.360;2023-09-19T16:31:27;18.60;99.90
42617;DHT22;28250;52.320;0.360;2023-09-19T16:33:54;18.60;99.90
42617;DHT22;28250;52.320;0.360;2023-09-19T16:36:25;18.60;99.90
42617;DHT22;28250;52.320;0.360;2023-09-19T16:38:51;18.60;99.90
42617;DHT22;28250;52.320;0.360;2023-09-19T16:41:18;18.60;99.90
42617;DHT22;28250;52.320;0.360;2023-09-19T16:43:45;18.70;99.90